sensor_id;sensor_type;location;lat;lon;timestamp;P1;durP1;ratioP1;P2;durP2;ratioP2
42726;SDS011;28372;56.832;60.658;2022-11-20T00:01:26;9.52;;;4.00;;
42726;SDS011;28372;56.832;60.658;2022-11-20T00:03:54;12.00;;;4.03;;
42726;SDS011;28372;56.832;60.658;2022-11-20T00:06:25;9.10;;;3.53;;
42726;SDS011;28372;56.832;60.658;2022-11-20T00:08:54;9.98;;;3.83;;
42726;SDS011;28372;56.832;60.658;2022-11-20T00:11:24;9.90;;;3.47;;
42726;SDS011;28372;56.832;60.658;2022-11-20T00:13:53;13.27;;;4.20;;
42726;SDS011;28372;56.832;60.658;2022-11-20T00:16:25;12.57;;;3.70;;
42726;SDS011;28372;56.832;60.658;2022-11-20T00:18:53;12.60;;;3.75;;
42726;SDS011;28372;56.832;60.658;2022-11-20T00:21:22;9.95;;;3.42;;
42726;SDS011;28372;56.832;60.658;2022-11-20T00:23:51;13.13;;;3.88;;
42726;SDS011;28372;56.832;60.658;2022-11-20T00:26:22;10.57;;;3.55;;
42726;SDS011;28372;56.832;60.658;2022-11-20T00:28:53;8.48;;;3.72;;
42726;SDS011;28372;56.832;60.658;2022-11-20T00:31:22;9.55;;;3.45;;
42726;SDS011;28372;56.832;60.658;2022-11-20T00:33:49;11.48;;;3.92;;
42726;SDS011;28372;56.832;60.658;2022-11-20T00:36:18;10.90;;;3.40;;
42726;SDS011;28372;56.832;60.658;2022-11-20T00:38:53;10.37;;;3.37;;
42726;SDS011;28372;56.832;60.658;2022-11-20T00:41:22;9.80;;;3.60;;
42726;SDS011;28372;56.832;60.658;2022-11-20T00:43:51;8.10;;;3.22;;
42726;SDS011;28372;56.832;60.658;2022-11-20T00:46:21;12.18;;;3.50;;
42726;SDS011;28372;56.832;60.658;2022-11-20T00:48:50;10.45;;;3.65;;
42726;SDS011;28372;56.832;60.658;2022-11-20T00:51:19;9.02;;;3.53;;
42726;SDS011;28372;56.832;60.658;2022-11-20T00:53:48;12.27;;;3.53;;
42726;SDS011;28372;56.832;60.658;2022-11-20T00:56:17;8.02;;;3.47;;
42726;SDS011;28372;56.832;60.658;2022-11-20T00:58:46;10.43;;;3.80;;
42726;SDS011;28372;56.832;60.658;2022-11-20T01:01:16;8.55;;;3.45;;
42726;SDS011;28372;56.832;60.658;2022-11-20T01:03:44;9.05;;;3.65;;
42726;SDS011;28372;56.832;60.658;2022-11-20T01:06:15;6.97;;;3.30;;
42726;SDS011;28372;56.832;60.658;2022-11-20T01:08:43;9.73;;;3.40;;
42726;SDS011;28372;56.832;60.658;2022-11-20T01:11:12;11.65;;;3.60;;
42726;SDS011;28372;56.832;60.658;2022-11-20T01:13:42;10.55;;;4.07;;
42726;SDS011;28372;56.832;60.658;2022-11-20T01:16:14;10.13;;;3.88;;
42726;SDS011;28372;56.832;60.658;2022-11-20T01:18:45;9.10;;;3.22;;
42726;SDS011;28372;56.832;60.658;2022-11-20T01:21:15;9.98;;;3.78;;
42726;SDS011;28372;56.832;60.658;2022-11-20T01:23:48;10.23;;;3.60;;
42726;SDS011;28372;56.832;60.658;2022-11-20T01:26:17;13.40;;;3.60;;
42726;SDS011;28372;56.832;60.658;2022-11-20T01:28:47;9.25;;;3.60;;
42726;SDS011;28372;56.832;60.658;2022-11-20T01:31:16;12.60;;;3.55;;
42726;SDS011;28372;56.832;60.658;2022-11-20T01:33:46;8.70;;;3.40;;
42726;SDS011;28372;56.832;60.658;2022-11-20T01:36:15;8.23;;;3.20;;
42726;SDS011;28372;56.832;60.658;2022-11-20T01:38:44;8.45;;;3.33;;
42726;SDS011;28372;56.832;60.658;2022-11-20T01:41:13;9.75;;;3.20;;
42726;SDS011;28372;56.832;60.658;2022-11-20T01:44:02;7.38;;;2.88;;
42726;SDS011;28372;56.832;60.658;2022-11-20T01:46:37;6.38;;;2.22;;
42726;SDS011;28372;56.832;60.658;2022-11-20T01:49:17;11.25;;;2.78;;
42726;SDS011;28372;56.832;60.658;2022-11-20T01:52:05;8.27;;;2.60;;
42726;SDS011;28372;56.832;60.658;2022-11-20T01:57:08;10.48;;;3.00;;
42726;SDS011;28372;56.832;60.658;2022-11-20T01:59:40;7.65;;;3.20;;
42726;SDS011;28372;56.832;60.658;2022-11-20T02:02:19;6.78;;;2.47;;
42726;SDS011;28372;56.832;60.658;2022-11-20T02:04:48;6.32;;;2.28;;
42726;SDS011;28372;56.832;60.658;2022-11-20T02:07:18;7.25;;;2.75;;
42726;SDS011;28372;56.832;60.658;2022-11-20T02:09:47;7.53;;;3.25;;
42726;SDS011;28372;56.832;60.658;2022-11-20T02:12:14;11.55;;;2.50;;
42726;SDS011;28372;56.832;60.658;2022-11-20T02:15:20;6.43;;;2.75;;
42726;SDS011;28372;56.832;60.658;2022-11-20T02:17:54;10.18;;;2.80;;
42726;SDS011;28372;56.832;60.658;2022-11-20T02:20:21;7.82;;;2.53;;
42726;SDS011;28372;56.832;60.658;2022-11-20T02:23:07;9.73;;;2.80;;
42726;SDS011;28372;56.832;60.658;2022-11-20T02:25:39;6.65;;;2.50;;
42726;SDS011;28372;56.832;60.658;2022-11-20T02:28:10;9.18;;;2.50;;
42726;SDS011;28372;56.832;60.658;2022-11-20T02:30:37;6.63;;;2.22;;
42726;SDS011;28372;56.832;60.658;2022-11-20T02:33:05;7.18;;;2.60;;
42726;SDS011;28372;56.832;60.658;2022-11-20T02:38:00;6.38;;;2.05;;
42726;SDS011;28372;56.832;60.658;2022-11-20T02:40:29;7.28;;;2.17;;
42726;SDS011;28372;56.832;60.658;2022-11-20T02:42:57;7.22;;;2.22;;
42726;SDS011;28372;56.832;60.658;2022-11-20T02:45:24;8.18;;;2.60;;
42726;SDS011;28372;56.832;60.658;2022-11-20T02:47:52;7.68;;;2.53;;
42726;SDS011;28372;56.832;60.658;2022-11-20T02:50:19;8.10;;;2.45;;
42726;SDS011;28372;56.832;60.658;2022-11-20T02:52:47;10.13;;;2.80;;
42726;SDS011;28372;56.832;60.658;2022-11-20T02:55:14;8.30;;;2.47;;
42726;SDS011;28372;56.832;60.658;2022-11-20T02:57:42;7.75;;;2.15;;
42726;SDS011;28372;56.832;60.658;2022-11-20T03:00:10;6.78;;;2.15;;
42726;SDS011;28372;56.832;60.658;2022-11-20T03:02:38;5.38;;;2.15;;
42726;SDS011;28372;56.832;60.658;2022-11-20T03:05:05;7.70;;;2.55;;
42726;SDS011;28372;56.832;60.658;2022-11-20T03:07:33;5.60;;;2.35;;
42726;SDS011;28372;56.832;60.658;2022-11-20T03:10:02;7.72;;;2.25;;
42726;SDS011;28372;56.832;60.658;2022-11-20T03:12:31;7.88;;;2.50;;
42726;SDS011;28372;56.832;60.658;2022-11-20T03:14:58;6.30;;;2.05;;
42726;SDS011;28372;56.832;60.658;2022-11-20T03:17:26;7.13;;;2.10;;
42726;SDS011;28372;56.832;60.658;2022-11-20T03:19:53;9.18;;;2.20;;
42726;SDS011;28372;56.832;60.658;2022-11-20T03:22:30;5.35;;;1.88;;
42726;SDS011;28372;56.832;60.658;2022-11-20T03:25:16;6.00;;;2.03;;
42726;SDS011;28372;56.832;60.658;2022-11-20T03:27:53;4.60;;;2.20;;
42726;SDS011;28372;56.832;60.658;2022-11-20T03:30:44;5.43;;;2.10;;
42726;SDS011;28372;56.832;60.658;2022-11-20T03:33:25;5.85;;;2.17;;
42726;SDS011;28372;56.832;60.658;2022-11-20T03:36:02;6.75;;;2.28;;
42726;SDS011;28372;56.832;60.658;2022-11-20T03:38:35;9.25;;;2.42;;
42726;SDS011;28372;56.832;60.658;2022-11-20T03:41:04;5.70;;;2.13;;
42726;SDS011;28372;56.832;60.658;2022-11-20T03:43:33;6.68;;;2.20;;
42726;SDS011;28372;56.832;60.658;2022-11-20T03:46:01;4.30;;;1.75;;
42726;SDS011;28372;56.832;60.658;2022-11-20T03:48:34;5.57;;;2.00;;
42726;SDS011;28372;56.832;60.658;2022-11-20T03:51:12;4.80;;;1.90;;
42726;SDS011;28372;56.832;60.658;2022-11-20T03:53:40;6.53;;;2.28;;
42726;SDS011;28372;56.832;60.658;2022-11-20T03:56:09;5.47;;;2.25;;
42726;SDS011;28372;56.832;60.658;2022-11-20T03:58:38;4.28;;;1.98;;
42726;SDS011;28372;56.832;60.658;2022-11-20T04:01:08;5.88;;;2.20;;
42726;SDS011;28372;56.832;60.658;2022-11-20T04:03:41;5.30;;;1.85;;
42726;SDS011;28372;56.832;60.658;2022-11-20T04:06:10;7.22;;;2.10;;
42726;SDS011;28372;56.832;60.658;2022-11-20T04:08:40;5.93;;;1.92;;
42726;SDS011;28372;56.832;60.658;2022-11-20T04:13:36;4.80;;;1.98;;
42726;SDS011;28372;56.832;60.658;2022-11-20T04:16:04;5.75;;;2.08;;
42726;SDS011;28372;56.832;60.658;2022-11-20T04:18:33;5.57;;;2.00;;
42726;SDS011;28372;56.832;60.658;2022-11-20T04:21:02;5.03;;;2.05;;
42726;SDS011;28372;56.832;60.658;2022-11-20T04:23:30;8.30;;;2.10;;
42726;SDS011;28372;56.832;60.658;2022-11-20T04:26:04;4.25;;;2.08;;
42726;SDS011;28372;56.832;60.658;2022-11-20T04:28:34;7.40;;;2.22;;
42726;SDS011;28372;56.832;60.658;2022-11-20T04:31:03;4.85;;;1.98;;
42726;SDS011;28372;56.832;60.658;2022-11-20T04:33:38;9.05;;;2.47;;
42726;SDS011;28372;56.832;60.658;2022-11-20T04:36:07;7.38;;;2.65;;
42726;SDS011;28372;56.832;60.658;2022-11-20T04:38:41;7.97;;;3.03;;
42726;SDS011;28372;56.832;60.658;2022-11-20T04:41:14;8.55;;;2.88;;
42726;SDS011;28372;56.832;60.658;2022-11-20T04:43:47;7.28;;;2.78;;
42726;SDS011;28372;56.832;60.658;2022-11-20T04:46:16;6.30;;;1.92;;
42726;SDS011;28372;56.832;60.658;2022-11-20T04:48:44;4.72;;;2.40;;
42726;SDS011;28372;56.832;60.658;2022-11-20T04:51:13;7.25;;;2.42;;
42726;SDS011;28372;56.832;60.658;2022-11-20T04:53:40;6.63;;;2.50;;
42726;SDS011;28372;56.832;60.658;2022-11-20T04:56:09;7.32;;;2.75;;
42726;SDS011;28372;56.832;60.658;2022-11-20T04:58:38;8.02;;;2.38;;
42726;SDS011;28372;56.832;60.658;2022-11-20T05:01:17;5.93;;;2.38;;
42726;SDS011;28372;56.832;60.658;2022-11-20T05:03:46;9.75;;;3.50;;
42726;SDS011;28372;56.832;60.658;2022-11-20T05:06:15;9.23;;;3.67;;
42726;SDS011;28372;56.832;60.658;2022-11-20T05:08:43;8.60;;;3.05;;
42726;SDS011;28372;56.832;60.658;2022-11-20T05:11:12;7.93;;;3.03;;
42726;SDS011;28372;56.832;60.658;2022-11-20T05:13:41;11.63;;;3.45;;
42726;SDS011;28372;56.832;60.658;2022-11-20T05:16:10;8.00;;;3.22;;
42726;SDS011;28372;56.832;60.658;2022-11-20T05:18:39;11.40;;;3.42;;
42726;SDS011;28372;56.832;60.658;2022-11-20T05:21:07;7.22;;;3.47;;
42726;SDS011;28372;56.832;60.658;2022-11-20T05:23:37;8.02;;;2.90;;
42726;SDS011;28372;56.832;60.658;2022-11-20T05:26:05;7.45;;;2.90;;
42726;SDS011;28372;56.832;60.658;2022-11-20T05:28:34;8.07;;;2.80;;
42726;SDS011;28372;56.832;60.658;2022-11-20T05:31:09;6.30;;;2.70;;
42726;SDS011;28372;56.832;60.658;2022-11-20T05:33:41;6.28;;;2.75;;
42726;SDS011;28372;56.832;60.658;2022-11-20T05:36:11;6.45;;;2.25;;
42726;SDS011;28372;56.832;60.658;2022-11-20T05:38:40;7.90;;;2.90;;
42726;SDS011;28372;56.832;60.658;2022-11-20T05:41:15;6.65;;;2.28;;
42726;SDS011;28372;56.832;60.658;2022-11-20T05:43:45;7.18;;;2.53;;
42726;SDS011;28372;56.832;60.658;2022-11-20T05:46:16;6.32;;;2.75;;
42726;SDS011;28372;56.832;60.658;2022-11-20T05:48:53;8.23;;;2.95;;
42726;SDS011;28372;56.832;60.658;2022-11-20T05:51:21;6.07;;;2.58;;
42726;SDS011;28372;56.832;60.658;2022-11-20T05:53:48;9.95;;;3.20;;
42726;SDS011;28372;56.832;60.658;2022-11-20T05:56:17;6.97;;;2.63;;
42726;SDS011;28372;56.832;60.658;2022-11-20T05:58:47;4.93;;;2.40;;
42726;SDS011;28372;56.832;60.658;2022-11-20T06:01:16;6.50;;;2.90;;
42726;SDS011;28372;56.832;60.658;2022-11-20T06:06:20;6.18;;;2.63;;
42726;SDS011;28372;56.832;60.658;2022-11-20T06:08:49;8.68;;;2.72;;
42726;SDS011;28372;56.832;60.658;2022-11-20T06:11:16;5.55;;;2.53;;
42726;SDS011;28372;56.832;60.658;2022-11-20T06:13:45;5.13;;;2.40;;
42726;SDS011;28372;56.832;60.658;2022-11-20T06:16:14;6.20;;;2.67;;
42726;SDS011;28372;56.832;60.658;2022-11-20T06:18:43;5.97;;;3.08;;
42726;SDS011;28372;56.832;60.658;2022-11-20T06:21:12;7.32;;;2.40;;
42726;SDS011;28372;56.832;60.658;2022-11-20T06:23:44;7.65;;;2.90;;
42726;SDS011;28372;56.832;60.658;2022-11-20T06:26:13;7.43;;;2.80;;
42726;SDS011;28372;56.832;60.658;2022-11-20T06:28:43;7.80;;;3.00;;
42726;SDS011;28372;56.832;60.658;2022-11-20T06:31:11;6.90;;;3.00;;
42726;SDS011;28372;56.832;60.658;2022-11-20T06:33:41;7.38;;;2.83;;
42726;SDS011;28372;56.832;60.658;2022-11-20T06:36:10;9.43;;;2.88;;
42726;SDS011;28372;56.832;60.658;2022-11-20T06:38:39;7.25;;;2.90;;
42726;SDS011;28372;56.832;60.658;2022-11-20T06:41:12;6.55;;;2.92;;
42726;SDS011;28372;56.832;60.658;2022-11-20T06:46:09;6.32;;;2.50;;
42726;SDS011;28372;56.832;60.658;2022-11-20T06:48:38;8.10;;;2.67;;
42726;SDS011;28372;56.832;60.658;2022-11-20T06:51:28;5.50;;;2.53;;
42726;SDS011;28372;56.832;60.658;2022-11-20T06:54:04;5.20;;;2.50;;
42726;SDS011;28372;56.832;60.658;2022-11-20T06:56:32;8.00;;;2.28;;
42726;SDS011;28372;56.832;60.658;2022-11-20T06:59:06;7.00;;;2.72;;
42726;SDS011;28372;56.832;60.658;2022-11-20T07:01:34;6.20;;;2.83;;
42726;SDS011;28372;56.832;60.658;2022-11-20T07:04:03;7.85;;;2.53;;
42726;SDS011;28372;56.832;60.658;2022-11-20T07:06:31;6.50;;;2.50;;
42726;SDS011;28372;56.832;60.658;2022-11-20T07:08:59;13.18;;;4.57;;
42726;SDS011;28372;56.832;60.658;2022-11-20T07:11:27;8.52;;;3.15;;
42726;SDS011;28372;56.832;60.658;2022-11-20T07:13:56;8.32;;;3.40;;
42726;SDS011;28372;56.832;60.658;2022-11-20T07:16:24;11.18;;;4.25;;
42726;SDS011;28372;56.832;60.658;2022-11-20T07:18:52;9.20;;;3.28;;
42726;SDS011;28372;56.832;60.658;2022-11-20T07:21:19;7.18;;;2.97;;
42726;SDS011;28372;56.832;60.658;2022-11-20T07:23:50;9.85;;;2.88;;
42726;SDS011;28372;56.832;60.658;2022-11-20T07:26:18;7.55;;;2.92;;
42726;SDS011;28372;56.832;60.658;2022-11-20T07:28:49;9.88;;;3.25;;
42726;SDS011;28372;56.832;60.658;2022-11-20T07:31:21;10.00;;;3.42;;
42726;SDS011;28372;56.832;60.658;2022-11-20T07:33:49;6.60;;;2.90;;
42726;SDS011;28372;56.832;60.658;2022-11-20T07:36:17;7.88;;;2.88;;
42726;SDS011;28372;56.832;60.658;2022-11-20T07:38:45;7.57;;;2.90;;
42726;SDS011;28372;56.832;60.658;2022-11-20T07:41:12;9.77;;;2.88;;
42726;SDS011;28372;56.832;60.658;2022-11-20T07:43:40;7.68;;;3.00;;
42726;SDS011;28372;56.832;60.658;2022-11-20T07:46:07;8.00;;;2.72;;
42726;SDS011;28372;56.832;60.658;2022-11-20T07:48:35;7.85;;;2.75;;
42726;SDS011;28372;56.832;60.658;2022-11-20T07:51:02;7.88;;;2.42;;
42726;SDS011;28372;56.832;60.658;2022-11-20T07:53:30;6.07;;;2.90;;
42726;SDS011;28372;56.832;60.658;2022-11-20T07:56:01;8.88;;;2.83;;
42726;SDS011;28372;56.832;60.658;2022-11-20T07:58:29;8.50;;;2.60;;
42726;SDS011;28372;56.832;60.658;2022-11-20T08:01:03;7.78;;;2.72;;
42726;SDS011;28372;56.832;60.658;2022-11-20T08:03:32;7.72;;;2.80;;
42726;SDS011;28372;56.832;60.658;2022-11-20T08:06:00;7.45;;;2.47;;
42726;SDS011;28372;56.832;60.658;2022-11-20T08:08:32;10.90;;;2.88;;
42726;SDS011;28372;56.832;60.658;2022-11-20T08:11:05;7.82;;;2.78;;
42726;SDS011;28372;56.832;60.658;2022-11-20T08:13:52;6.50;;;2.65;;
42726;SDS011;28372;56.832;60.658;2022-11-20T08:16:42;6.70;;;2.90;;
42726;SDS011;28372;56.832;60.658;2022-11-20T08:19:14;8.98;;;2.80;;
42726;SDS011;28372;56.832;60.658;2022-11-20T08:21:43;6.97;;;3.05;;
42726;SDS011;28372;56.832;60.658;2022-11-20T08:24:11;6.47;;;2.38;;
42726;SDS011;28372;56.832;60.658;2022-11-20T08:26:39;8.80;;;2.80;;
42726;SDS011;28372;56.832;60.658;2022-11-20T08:29:07;7.85;;;3.08;;
42726;SDS011;28372;56.832;60.658;2022-11-20T08:31:35;10.10;;;3.28;;
42726;SDS011;28372;56.832;60.658;2022-11-20T08:34:02;8.15;;;3.33;;
42726;SDS011;28372;56.832;60.658;2022-11-20T08:36:35;8.02;;;3.00;;
42726;SDS011;28372;56.832;60.658;2022-11-20T08:39:03;7.03;;;2.92;;
42726;SDS011;28372;56.832;60.658;2022-11-20T08:41:30;9.93;;;3.10;;
42726;SDS011;28372;56.832;60.658;2022-11-20T08:44:21;8.38;;;2.65;;
42726;SDS011;28372;56.832;60.658;2022-11-20T08:47:11;8.57;;;3.28;;
42726;SDS011;28372;56.832;60.658;2022-11-20T08:50:07;10.32;;;3.28;;
42726;SDS011;28372;56.832;60.658;2022-11-20T08:53:12;11.70;;;3.92;;
42726;SDS011;28372;56.832;60.658;2022-11-20T08:55:53;9.82;;;3.28;;
42726;SDS011;28372;56.832;60.658;2022-11-20T08:58:25;6.57;;;3.33;;
42726;SDS011;28372;56.832;60.658;2022-11-20T09:00:53;8.82;;;3.25;;
42726;SDS011;28372;56.832;60.658;2022-11-20T09:03:21;7.38;;;2.83;;
42726;SDS011;28372;56.832;60.658;2022-11-20T09:05:48;11.50;;;3.50;;
42726;SDS011;28372;56.832;60.658;2022-11-20T09:08:16;7.20;;;3.03;;
42726;SDS011;28372;56.832;60.658;2022-11-20T09:10:43;6.03;;;2.20;;
42726;SDS011;28372;56.832;60.658;2022-11-20T09:13:10;7.35;;;2.30;;
42726;SDS011;28372;56.832;60.658;2022-11-20T09:15:38;5.28;;;1.80;;
42726;SDS011;28372;56.832;60.658;2022-11-20T09:18:06;4.35;;;1.98;;
42726;SDS011;28372;56.832;60.658;2022-11-20T09:20:33;4.18;;;1.70;;
42726;SDS011;28372;56.832;60.658;2022-11-20T09:23:19;7.53;;;2.97;;
42726;SDS011;28372;56.832;60.658;2022-11-20T09:33:41;3.95;;;1.40;;
42726;SDS011;28372;56.832;60.658;2022-11-20T09:39:56;6.35;;;1.70;;
42726;SDS011;28372;56.832;60.658;2022-11-20T09:50:32;4.90;;;1.85;;
42726;SDS011;28372;56.832;60.658;2022-11-20T09:55:45;4.13;;;1.70;;
42726;SDS011;28372;56.832;60.658;2022-11-20T09:58:23;4.55;;;1.65;;
42726;SDS011;28372;56.832;60.658;2022-11-20T10:00:56;4.68;;;1.48;;
42726;SDS011;28372;56.832;60.658;2022-11-20T10:03:45;5.45;;;1.90;;
42726;SDS011;28372;56.832;60.658;2022-11-20T10:06:17;6.72;;;2.03;;
42726;SDS011;28372;56.832;60.658;2022-11-20T10:08:54;4.03;;;1.88;;
42726;SDS011;28372;56.832;60.658;2022-11-20T10:12:05;4.78;;;1.67;;
42726;SDS011;28372;56.832;60.658;2022-11-20T10:17:40;5.40;;;1.77;;
42726;SDS011;28372;56.832;60.658;2022-11-20T10:23:01;3.22;;;1.33;;
42726;SDS011;28372;56.832;60.658;2022-11-20T10:25:39;4.30;;;2.00;;
42726;SDS011;28372;56.832;60.658;2022-11-20T10:31:26;4.97;;;1.90;;
42726;SDS011;28372;56.832;60.658;2022-11-20T10:34:18;4.78;;;2.17;;
42726;SDS011;28372;56.832;60.658;2022-11-20T10:36:58;6.13;;;2.20;;
42726;SDS011;28372;56.832;60.658;2022-11-20T10:39:39;6.10;;;2.13;;
42726;SDS011;28372;56.832;60.658;2022-11-20T10:42:16;7.43;;;2.72;;
42726;SDS011;28372;56.832;60.658;2022-11-20T10:44:52;7.93;;;3.20;;
42726;SDS011;28372;56.832;60.658;2022-11-20T10:47:32;9.35;;;3.10;;
42726;SDS011;28372;56.832;60.658;2022-11-20T10:50:04;9.77;;;3.22;;
42726;SDS011;28372;56.832;60.658;2022-11-20T10:55:42;6.50;;;2.70;;
42726;SDS011;28372;56.832;60.658;2022-11-20T10:58:22;7.88;;;3.28;;
42726;SDS011;28372;56.832;60.658;2022-11-20T11:01:04;6.88;;;2.83;;
42726;SDS011;28372;56.832;60.658;2022-11-20T11:03:33;7.05;;;2.70;;
42726;SDS011;28372;56.832;60.658;2022-11-20T11:06:08;8.93;;;2.90;;
42726;SDS011;28372;56.832;60.658;2022-11-20T11:08:44;9.52;;;4.10;;
42726;SDS011;28372;56.832;60.658;2022-11-20T11:11:25;8.52;;;3.00;;
42726;SDS011;28372;56.832;60.658;2022-11-20T11:14:06;9.43;;;3.33;;
42726;SDS011;28372;56.832;60.658;2022-11-20T11:16:34;8.60;;;3.05;;
42726;SDS011;28372;56.832;60.658;2022-11-20T11:19:05;7.88;;;3.25;;
42726;SDS011;28372;56.832;60.658;2022-11-20T11:21:34;5.65;;;2.40;;
42726;SDS011;28372;56.832;60.658;2022-11-20T11:24:04;8.88;;;3.13;;
42726;SDS011;28372;56.832;60.658;2022-11-20T11:26:56;6.57;;;3.03;;
42726;SDS011;28372;56.832;60.658;2022-11-20T11:29:26;10.05;;;3.45;;
42726;SDS011;28372;56.832;60.658;2022-11-20T11:32:11;6.13;;;2.88;;
42726;SDS011;28372;56.832;60.658;2022-11-20T11:35:38;8.15;;;3.30;;
42726;SDS011;28372;56.832;60.658;2022-11-20T11:37:49;4.97;;;2.05;;
42726;SDS011;28372;56.832;60.658;2022-11-20T11:40:18;13.05;;;3.60;;
42726;SDS011;28372;56.832;60.658;2022-11-20T11:42:55;9.90;;;2.88;;
42726;SDS011;28372;56.832;60.658;2022-11-20T11:45:26;8.25;;;3.63;;
42726;SDS011;28372;56.832;60.658;2022-11-20T11:47:55;10.85;;;3.40;;
42726;SDS011;28372;56.832;60.658;2022-11-20T11:50:28;7.53;;;3.00;;
42726;SDS011;28372;56.832;60.658;2022-11-20T11:53:09;9.88;;;3.70;;
42726;SDS011;28372;56.832;60.658;2022-11-20T11:55:58;8.73;;;3.78;;
42726;SDS011;28372;56.832;60.658;2022-11-20T11:58:44;9.88;;;4.03;;
42726;SDS011;28372;56.832;60.658;2022-11-20T12:10:58;12.15;;;3.35;;
42726;SDS011;28372;56.832;60.658;2022-11-20T12:16:14;10.90;;;3.83;;
42726;SDS011;28372;56.832;60.658;2022-11-20T12:18:48;14.32;;;3.80;;
42726;SDS011;28372;56.832;60.658;2022-11-20T12:29:34;10.07;;;3.22;;
42726;SDS011;28372;56.832;60.658;2022-11-20T12:35:26;8.15;;;3.20;;
42726;SDS011;28372;56.832;60.658;2022-11-20T12:42:48;10.35;;;4.32;;
42726;SDS011;28372;56.832;60.658;2022-11-20T12:45:21;8.85;;;3.78;;
42726;SDS011;28372;56.832;60.658;2022-11-20T12:48:49;8.85;;;3.60;;
42726;SDS011;28372;56.832;60.658;2022-11-20T12:53:55;10.98;;;3.92;;
42726;SDS011;28372;56.832;60.658;2022-11-20T12:59:33;8.63;;;3.45;;
42726;SDS011;28372;56.832;60.658;2022-11-20T13:02:24;10.52;;;3.63;;
42726;SDS011;28372;56.832;60.658;2022-11-20T13:07:50;9.80;;;3.85;;
42726;SDS011;28372;56.832;60.658;2022-11-20T13:10:26;9.25;;;4.28;;
42726;SDS011;28372;56.832;60.658;2022-11-20T13:13:14;12.57;;;4.22;;
42726;SDS011;28372;56.832;60.658;2022-11-20T13:15:54;11.27;;;3.72;;
42726;SDS011;28372;56.832;60.658;2022-11-20T13:18:29;11.15;;;3.70;;
42726;SDS011;28372;56.832;60.658;2022-11-20T13:23:43;8.98;;;3.03;;
42726;SDS011;28372;56.832;60.658;2022-11-20T13:26:22;8.18;;;3.33;;
42726;SDS011;28372;56.832;60.658;2022-11-20T13:29:02;8.55;;;3.35;;
42726;SDS011;28372;56.832;60.658;2022-11-20T13:31:36;9.13;;;3.42;;
42726;SDS011;28372;56.832;60.658;2022-11-20T13:34:12;11.40;;;3.53;;
42726;SDS011;28372;56.832;60.658;2022-11-20T13:37:02;12.95;;;4.13;;
42726;SDS011;28372;56.832;60.658;2022-11-20T13:39:34;8.82;;;3.60;;
42726;SDS011;28372;56.832;60.658;2022-11-20T13:42:20;8.50;;;3.28;;
42726;SDS011;28372;56.832;60.658;2022-11-20T13:44:54;7.72;;;2.90;;
42726;SDS011;28372;56.832;60.658;2022-11-20T13:47:23;6.57;;;2.83;;
42726;SDS011;28372;56.832;60.658;2022-11-20T13:49:52;9.07;;;3.20;;
42726;SDS011;28372;56.832;60.658;2022-11-20T13:55:27;7.63;;;2.92;;
42726;SDS011;28372;56.832;60.658;2022-11-20T14:01:08;6.90;;;3.03;;
42726;SDS011;28372;56.832;60.658;2022-11-20T14:03:42;7.35;;;3.30;;
42726;SDS011;28372;56.832;60.658;2022-11-20T14:06:34;7.75;;;3.38;;
42726;SDS011;28372;56.832;60.658;2022-11-20T14:09:13;10.02;;;3.58;;
42726;SDS011;28372;56.832;60.658;2022-11-20T14:12:02;10.13;;;3.97;;
42726;SDS011;28372;56.832;60.658;2022-11-20T14:14:32;11.15;;;3.58;;
42726;SDS011;28372;56.832;60.658;2022-11-20T14:17:08;9.57;;;3.15;;
42726;SDS011;28372;56.832;60.658;2022-11-20T14:19:44;12.93;;;4.03;;
42726;SDS011;28372;56.832;60.658;2022-11-20T14:24:47;10.32;;;3.28;;
42726;SDS011;28372;56.832;60.658;2022-11-20T14:27:19;7.03;;;2.90;;
42726;SDS011;28372;56.832;60.658;2022-11-20T14:29:49;8.75;;;2.90;;
42726;SDS011;28372;56.832;60.658;2022-11-20T14:32:18;7.80;;;2.85;;
42726;SDS011;28372;56.832;60.658;2022-11-20T14:34:49;9.60;;;3.13;;
42726;SDS011;28372;56.832;60.658;2022-11-20T14:37:24;7.82;;;2.95;;
42726;SDS011;28372;56.832;60.658;2022-11-20T14:40:00;10.43;;;3.08;;
42726;SDS011;28372;56.832;60.658;2022-11-20T14:42:28;11.35;;;3.42;;
42726;SDS011;28372;56.832;60.658;2022-11-20T14:44:59;10.18;;;3.80;;
42726;SDS011;28372;56.832;60.658;2022-11-20T14:47:29;17.50;;;4.70;;
42726;SDS011;28372;56.832;60.658;2022-11-20T14:49:59;11.88;;;4.65;;
42726;SDS011;28372;56.832;60.658;2022-11-20T14:52:36;14.38;;;4.28;;
42726;SDS011;28372;56.832;60.658;2022-11-20T14:55:04;8.70;;;3.30;;
42726;SDS011;28372;56.832;60.658;2022-11-20T14:57:33;11.57;;;3.90;;
42726;SDS011;28372;56.832;60.658;2022-11-20T15:00:07;10.77;;;4.50;;
42726;SDS011;28372;56.832;60.658;2022-11-20T15:02:41;14.60;;;5.60;;
42726;SDS011;28372;56.832;60.658;2022-11-20T15:05:13;9.45;;;4.07;;
42726;SDS011;28372;56.832;60.658;2022-11-20T15:07:43;12.88;;;4.30;;
42726;SDS011;28372;56.832;60.658;2022-11-20T15:10:24;14.10;;;4.68;;
42726;SDS011;28372;56.832;60.658;2022-11-20T15:12:56;14.75;;;5.45;;
42726;SDS011;28372;56.832;60.658;2022-11-20T15:15:47;11.60;;;4.78;;
42726;SDS011;28372;56.832;60.658;2022-11-20T15:18:21;10.10;;;3.85;;
42726;SDS011;28372;56.832;60.658;2022-11-20T15:20:51;12.07;;;4.10;;
42726;SDS011;28372;56.832;60.658;2022-11-20T15:23:20;10.80;;;3.50;;
42726;SDS011;28372;56.832;60.658;2022-11-20T15:25:48;13.68;;;4.93;;
42726;SDS011;28372;56.832;60.658;2022-11-20T15:28:25;7.18;;;2.83;;
42726;SDS011;28372;56.832;60.658;2022-11-20T15:30:57;10.07;;;3.80;;
42726;SDS011;28372;56.832;60.658;2022-11-20T15:33:25;15.50;;;5.13;;
42726;SDS011;28372;56.832;60.658;2022-11-20T15:35:52;8.32;;;3.45;;
42726;SDS011;28372;56.832;60.658;2022-11-20T15:38:20;8.80;;;3.72;;
42726;SDS011;28372;56.832;60.658;2022-11-20T15:40:48;9.88;;;4.32;;
42726;SDS011;28372;56.832;60.658;2022-11-20T15:43:15;11.57;;;4.38;;
42726;SDS011;28372;56.832;60.658;2022-11-20T15:46:44;11.20;;;4.15;;
42726;SDS011;28372;56.832;60.658;2022-11-20T15:48:45;15.80;;;6.30;;
42726;SDS011;28372;56.832;60.658;2022-11-20T15:53:52;13.52;;;5.43;;
42726;SDS011;28372;56.832;60.658;2022-11-20T15:56:19;8.02;;;4.10;;
42726;SDS011;28372;56.832;60.658;2022-11-20T15:58:47;10.05;;;3.95;;
42726;SDS011;28372;56.832;60.658;2022-11-20T16:01:15;12.13;;;3.60;;
42726;SDS011;28372;56.832;60.658;2022-11-20T16:03:45;11.38;;;4.30;;
42726;SDS011;28372;56.832;60.658;2022-11-20T16:06:14;19.13;;;6.43;;
42726;SDS011;28372;56.832;60.658;2022-11-20T16:08:43;11.90;;;4.28;;
42726;SDS011;28372;56.832;60.658;2022-11-20T16:11:15;11.80;;;4.40;;
42726;SDS011;28372;56.832;60.658;2022-11-20T16:13:45;14.52;;;6.45;;
42726;SDS011;28372;56.832;60.658;2022-11-20T16:16:33;20.30;;;7.30;;
42726;SDS011;28372;56.832;60.658;2022-11-20T16:19:02;12.38;;;4.60;;
42726;SDS011;28372;56.832;60.658;2022-11-20T16:21:33;14.52;;;5.72;;
42726;SDS011;28372;56.832;60.658;2022-11-20T16:24:02;18.83;;;7.68;;
42726;SDS011;28372;56.832;60.658;2022-11-20T16:26:32;21.15;;;8.23;;
42726;SDS011;28372;56.832;60.658;2022-11-20T16:29:01;19.77;;;7.00;;
42726;SDS011;28372;56.832;60.658;2022-11-20T16:31:30;13.35;;;4.95;;
42726;SDS011;28372;56.832;60.658;2022-11-20T16:34:00;11.27;;;4.30;;
42726;SDS011;28372;56.832;60.658;2022-11-20T16:36:41;14.32;;;4.78;;
42726;SDS011;28372;56.832;60.658;2022-11-20T16:39:11;13.18;;;5.07;;
42726;SDS011;28372;56.832;60.658;2022-11-20T16:41:39;33.85;;;12.18;;